Time;durP1;ratioP1;P1;durP2;ratioP2;P2;SDS_P1;SDS_P2;PMS_P1;PMS_P2;Temp;Humidity;BMP_temperature;BMP_pressure;BME280_temperature;BME280_humidity;BME280_pressure;Samples;Min_cycle;Max_cycle;Signal;HPM_P1;HPM_P2
2023/05/05 00:02:24;;;;;;;2.83;2.37;;;;;;;16.32;61.92;101340.66;5047045;28;20030;-83
2023/05/05 00:04:49;;;;;;;2.67;2.47;;;;;;;16.30;62.37;101339.84;5031132;28;20398;-83
2023/05/05 00:07:14;;;;;;;2.40;2.20;;;;;;;16.21;63.77;101341.81;5032934;28;20021;-83
2023/05/05 00:09:40;;;;;;;2.43;2.23;;;;;;;16.21;63.62;101343.59;5032678;28;20030;-83
2023/05/05 00:12:06;;;;;;;2.73;2.40;;;;;;;16.19;62.85;101341.03;5035470;28;20033;-83
2023/05/05 00:14:31;;;;;;;2.40;2.20;;;;;;;16.17;63.98;101337.59;5052441;28;20526;-83
2023/05/05 00:16:56;;;;;;;2.40;2.20;;;;;;;16.13;61.89;101343.81;5052878;28;20109;-83
2023/05/05 00:19:22;;;;;;;2.30;2.10;;;;;;;16.08;61.66;101348.34;5051702;28;20029;-83
2023/05/05 00:21:47;;;;;;;2.60;2.13;;;;;;;16.08;65.40;101353.59;5051816;28;20041;-83
2023/05/05 00:24:12;;;;;;;3.73;2.53;;;;;;;16.04;66.49;101359.81;5052754;28;20025;-83
2023/05/05 00:26:37;;;;;;;3.97;3.10;;;;;;;16.03;68.01;101352.84;5051402;28;20025;-83
2023/05/05 00:29:03;;;;;;;3.53;2.50;;;;;;;16.01;64.88;101363.38;5034877;28;20083;-83
2023/05/05 00:31:30;;;;;;;3.00;2.67;;;;;;;15.95;69.16;101352.25;5032320;28;20504;-83
2023/05/05 00:33:55;;;;;;;3.03;2.70;;;;;;;15.92;67.74;101352.31;5046359;28;20029;-83
2023/05/05 00:36:21;;;;;;;5.73;3.30;;;;;;;15.92;67.82;101365.41;5032178;28;20113;-84
2023/05/05 00:38:46;;;;;;;7.07;4.27;;;;;;;15.87;71.90;101349.84;5032752;28;20047;-83
2023/05/05 00:41:12;;;;;;;9.47;5.03;;;;;;;15.90;71.56;101349.75;5031731;28;20027;-82
2023/05/05 00:43:37;;;;;;;12.20;5.90;;;;;;;15.88;72.02;101347.16;5047044;28;20037;-83
2023/05/05 00:46:28;;;;;;;9.53;5.07;;;;;;;15.88;71.06;101349.78;5043292;28;20037;-83
2023/05/05 00:48:53;;;;;;;7.68;4.45;;;;;;;15.86;71.45;101348.13;5017688;28;20555;-83
2023/05/05 00:51:19;;;;;;;6.03;3.90;;;;;;;15.86;70.54;101359.47;5032489;28;20112;-83
2023/05/05 00:53:46;;;;;;;7.28;4.82;;;;;;;15.81;71.13;101368.31;5031675;28;20113;-83
2023/05/05 00:56:12;;;;;;;6.95;4.30;;;;;;;15.80;70.48;101371.84;5042052;28;20059;-83
2023/05/05 00:58:40;;;;;;;7.35;4.45;;;;;;;15.74;71.61;101367.63;5052072;28;20071;-83
2023/05/05 01:01:05;;;;;;;7.10;4.40;;;;;;;15.72;71.86;101366.81;5051794;28;20025;-83
2023/05/05 01:03:31;;;;;;;6.17;3.73;;;;;;;15.69;68.85;101359.03;5052161;28;20078;-83
2023/05/05 01:06:24;;;;;;;5.80;3.57;;;;;;;15.68;68.97;101357.31;5044561;28;20033;-83
2023/05/05 01:09:00;;;;;;;5.20;3.38;;;;;;;15.65;70.18;101360.06;5031426;28;20022;-83
2023/05/05 01:11:34;;;;;;;5.22;3.38;;;;;;;15.60;69.08;101354.91;5031967;28;20033;-83
2023/05/05 01:14:21;;;;;;;4.03;3.00;;;;;;;15.57;72.31;101365.50;5036696;28;20021;-83
2023/05/05 01:16:59;;;;;;;4.50;3.10;;;;;;;15.52;70.50;101373.47;5037021;28;20040;-83
2023/05/05 01:19:35;;;;;;;3.88;3.00;;;;;;;15.48;70.44;101371.00;5032236;28;20038;-83
2023/05/05 01:22:05;;;;;;;3.20;2.58;;;;;;;15.42;70.57;101377.25;5031204;28;20115;-83
2023/05/05 01:25:08;;;;;;;2.47;2.20;;;;;;;15.39;69.01;101385.16;5032054;28;20021;-83
2023/05/05 01:27:40;;;;;;;2.97;2.40;;;;;;;15.35;68.93;101383.53;5032321;28;20026;-83
2023/05/05 01:30:26;;;;;;;2.53;2.28;;;;;;;15.34;68.53;101381.78;5044456;28;20032;-83
2023/05/05 01:32:55;;;;;;;;;;;;;;;15.32;68.82;101373.13;5056103;28;20106;-83
2023/05/05 01:35:40;;;;;;;4.50;2.80;;;;;;;15.29;68.69;101356.66;5036687;28;19917;-83
2023/05/05 01:38:35;;;;;;;2.30;2.10;;;;;;;15.32;68.50;101353.09;5054994;28;20025;-83
2023/05/05 01:41:09;;;;;;;2.20;2.00;;;;;;;15.32;67.83;101358.31;5044537;28;20037;-83
2023/05/05 01:43:36;;;;;;;2.38;1.80;;;;;;;15.31;67.66;101361.81;5053965;28;20052;-82
2023/05/05 01:46:04;;;;;;;2.00;1.80;;;;;;;15.27;67.01;101368.91;5048315;28;20033;-83
2023/05/05 01:48:32;;;;;;;2.13;1.70;;;;;;;15.26;67.34;101371.53;5035142;28;20107;-83
2023/05/05 01:50:59;;;;;;;2.15;1.95;;;;;;;15.20;71.01;101369.94;5034589;28;20034;-83
2023/05/05 01:53:26;;;;;;;2.28;1.98;;;;;;;15.17;68.06;101362.19;5034966;28;20486;-83
2023/05/05 01:55:53;;;;;;;3.25;2.40;;;;;;;15.13;70.38;101364.03;5040099;28;20068;-83
2023/05/05 01:58:24;;;;;;;3.15;2.58;;;;;;;15.07;68.73;101363.34;5054391;28;20032;-83
2023/05/05 02:00:50;;;;;;;2.28;2.08;;;;;;;15.05;68.18;101371.19;5037256;28;20028;-83
2023/05/05 02:03:16;;;;;;;2.50;2.30;;;;;;;15.03;69.13;101367.75;5055364;28;20381;-83
2023/05/05 02:05:43;;;;;;;2.15;1.95;;;;;;;14.96;69.96;101363.59;5049927;28;20501;-83
2023/05/05 02:08:10;;;;;;;2.10;1.90;;;;;;;14.94;69.21;101370.63;5035154;28;20039;-83
2023/05/05 02:10:39;;;;;;;2.08;1.90;;;;;;;14.89;68.72;101370.72;5034536;28;20028;-82
2023/05/05 02:13:05;;;;;;;1.83;1.70;;;;;;;14.82;67.48;101372.63;5034686;28;20025;-83
2023/05/05 02:15:34;;;;;;;3.15;2.22;;;;;;;14.79;67.34;101377.09;5035586;28;20021;-82
2023/05/05 02:18:03;;;;;;;1.83;1.63;;;;;;;14.74;67.32;101374.59;5054335;28;20066;-83
2023/05/05 02:20:33;;;;;;;1.85;1.75;;;;;;;14.71;67.59;101374.66;5044980;28;20029;-82
2023/05/05 02:22:58;;;;;;;2.03;1.67;;;;;;;14.65;66.84;101382.63;5034632;28;20103;-82
2023/05/05 02:25:48;;;;;;;2.47;2.03;;;;;;;14.58;67.42;101381.06;5033561;28;20739;-83
2023/05/05 02:28:26;;;;;;;2.10;1.90;;;;;;;14.51;67.47;101385.56;5034568;28;20080;-83
2023/05/05 02:30:58;;;;;;;1.92;1.80;;;;;;;14.44;68.68;101392.69;5034766;28;20049;-83
2023/05/05 02:33:25;;;;;;;1.80;1.70;;;;;;;14.35;67.26;101391.13;5033831;28;20060;-83
2023/05/05 02:35:52;;;;;;;2.45;1.90;;;;;;;14.32;68.10;101391.19;5034797;28;20029;-83
2023/05/05 02:38:22;;;;;;;2.08;1.88;;;;;;;14.21;67.57;101380.13;5034475;28;20053;-83
2023/05/05 02:40:49;;;;;;;1.73;1.60;;;;;;;14.20;67.84;101397.53;5032530;28;20029;-83
2023/05/05 02:43:18;;;;;;;1.70;1.60;;;;;;;14.15;67.95;101399.38;5034412;28;20470;-83
2023/05/05 02:45:43;;;;;;;1.50;1.40;;;;;;;14.09;68.28;101396.91;5046984;28;20040;-82
2023/05/05 02:48:11;;;;;;;1.47;1.37;;;;;;;14.00;68.71;101397.13;5033301;28;20022;-83
2023/05/05 02:50:37;;;;;;;1.50;1.40;;;;;;;13.96;68.45;101413.72;5033972;28;20184;-83
2023/05/05 02:53:03;;;;;;;1.50;1.40;;;;;;;13.88;68.60;101406.91;5034476;28;20134;-83
2023/05/05 02:55:36;;;;;;;0.90;0.90;;;;;;;13.86;70.22;101415.63;5033030;28;20485;-82
2023/05/05 02:58:06;;;;;;;1.20;1.13;;;;;;;13.82;69.02;101411.38;5053438;28;20476;-82
2023/05/05 03:00:54;;;;;;;1.15;1.08;;;;;;;13.79;68.30;101409.69;5052983;28;20090;-82
2023/05/05 03:03:46;;;;;;;1.08;1.08;;;;;;;13.76;69.43;101407.16;5053709;28;20033;-82
2023/05/05 03:06:26;;;;;;;0.95;0.95;;;;;;;13.69;70.16;101395.09;5039693;28;20025;-82
2023/05/05 03:09:01;;;;;;;1.00;1.00;;;;;;;13.66;69.49;101401.25;5053001;28;20035;-82
2023/05/05 03:11:48;;;;;;;1.00;1.00;;;;;;;13.62;68.87;101397.00;5053587;28;20029;-82
2023/05/05 03:14:17;;;;;;;1.00;1.00;;;;;;;13.57;68.70;101404.88;5045869;28;20532;-82
2023/05/05 03:16:46;;;;;;;1.25;1.20;;;;;;;13.55;68.64;101405.81;5042331;28;20096;-82
2023/05/05 03:19:15;;;;;;;1.30;1.20;;;;;;;13.51;68.33;101415.44;5053339;28;20493;-82
2023/05/05 03:21:40;;;;;;;1.50;1.40;;;;;;;13.47;68.63;101418.97;5051948;28;20045;-82
2023/05/05 03:24:14;;;;;;;1.30;1.20;;;;;;;13.42;68.57;101410.41;5053846;28;20109;-82
2023/05/05 03:26:39;;;;;;;1.60;1.50;;;;;;;13.37;68.74;101417.41;5045383;28;20064;-83
2023/05/05 03:29:05;;;;;;;1.70;1.60;;;;;;;13.29;68.77;101423.63;5052903;28;20059;-82
2023/05/05 03:31:31;;;;;;;1.50;1.40;;;;;;;13.23;69.12;101420.25;5052875;28;20056;-83
2023/05/05 03:33:56;;;;;;;1.57;1.47;;;;;;;13.20;70.07;101420.28;5053379;28;20021;-83
2023/05/05 03:36:21;;;;;;;2.47;2.03;;;;;;;13.11;73.25;101421.31;5045852;28;20036;-83
2023/05/05 03:38:47;;;;;;;2.00;1.80;;;;;;;13.05;71.26;101422.28;5033174;28;20033;-83
2023/05/05 03:41:12;;;;;;;2.23;2.00;;;;;;;12.96;70.80;101420.69;5033077;28;20428;-83
2023/05/05 03:43:38;;;;;;;2.03;1.83;;;;;;;12.95;73.77;101423.28;5032083;28;20029;-82
2023/05/05 03:46:04;;;;;;;3.27;2.30;;;;;;;12.90;71.85;101415.56;5033116;28;20100;-83
2023/05/05 03:48:29;;;;;;;3.63;2.43;;;;;;;12.89;72.34;101429.47;5036092;28;20110;-83
2023/05/05 03:50:55;;;;;;;2.83;2.23;;;;;;;12.87;71.66;101430.38;5051959;28;20302;-83
2023/05/05 03:53:20;;;;;;;3.27;2.37;;;;;;;12.86;71.08;101431.25;5053029;28;20455;-83
2023/05/05 03:55:45;;;;;;;2.60;2.40;;;;;;;12.83;72.56;101433.03;5052911;28;20059;-83
2023/05/05 03:58:11;;;;;;;3.07;2.60;;;;;;;12.80;75.61;101427.00;5052114;28;20515;-83
2023/05/05 04:00:36;;;;;;;2.53;2.23;;;;;;;12.75;72.89;101431.44;5050587;28;20056;-83
2023/05/05 04:03:01;;;;;;;2.30;2.10;;;;;;;12.72;72.94;101436.69;5033014;28;20025;-83
2023/05/05 04:05:27;;;;;;;2.73;2.23;;;;;;;12.73;73.63;101443.63;5031929;28;20056;-83
2023/05/05 04:07:52;;;;;;;2.80;2.30;;;;;;;12.72;72.49;101452.31;5035407;28;20428;-83
2023/05/05 04:10:18;;;;;;;3.00;2.50;;;;;;;12.69;73.17;101448.00;5052993;28;20029;-83
2023/05/05 04:12:43;;;;;;;2.50;2.30;;;;;;;12.65;73.93;101447.22;5047654;28;20034;-82
2023/05/05 04:15:09;;;;;;;2.63;2.20;;;;;;;12.66;74.27;101451.53;5045669;28;20024;-83
2023/05/05 04:17:34;;;;;;;2.40;2.17;;;;;;;12.62;75.45;101449.84;5052639;28;20361;-82
2023/05/05 04:19:59;;;;;;;2.23;2.00;;;;;;;12.61;75.26;101449.88;5052051;28;20128;-82
2023/05/05 04:22:25;;;;;;;2.27;2.07;;;;;;;12.59;75.27;101454.25;5052389;28;20053;-83
2023/05/05 04:24:50;;;;;;;2.30;2.10;;;;;;;12.59;74.52;101462.06;5048680;28;20033;-82
2023/05/05 04:27:15;;;;;;;2.53;2.20;;;;;;;12.58;74.74;101457.72;5066525;23;20491;-82
2023/05/05 04:29:41;;;;;;;3.00;2.30;;;;;;;12.59;75.08;101454.25;5092663;28;20023;-82
2023/05/05 04:32:07;;;;;;;2.53;2.30;;;;;;;12.57;77.32;101456.84;5092053;28;20059;-82
2023/05/05 04:34:32;;;;;;;3.65;2.60;;;;;;;12.53;78.20;101455.19;5092032;28;20039;-82
2023/05/05 04:36:58;;;;;;;3.03;2.50;;;;;;;12.55;76.50;101456.03;5093326;28;20175;-82
2023/05/05 04:39:23;;;;;;;2.80;2.40;;;;;;;12.49;74.97;101456.97;5091304;28;20373;-82
2023/05/05 04:41:48;;;;;;;2.97;2.37;;;;;;;12.54;76.14;101464.72;5093176;28;20476;-82
2023/05/05 04:44:14;;;;;;;4.77;3.23;;;;;;;12.55;78.17;101461.25;5093797;28;20043;-82
2023/05/05 04:46:40;;;;;;;5.50;3.43;;;;;;;12.55;77.31;101458.63;5091677;28;20388;-82
2023/05/05 04:49:05;;;;;;;4.80;2.90;;;;;;;12.54;77.56;101456.91;5092296;28;20016;-82
2023/05/05 04:51:31;;;;;;;3.60;2.60;;;;;;;12.57;77.16;101469.00;5091745;28;20472;-82
2023/05/05 04:53:56;;;;;;;4.40;2.90;;;;;;;12.52;77.37;101467.31;5091457;28;20020;-82
2023/05/05 04:56:24;;;;;;;3.53;2.63;;;;;;;12.50;80.76;101463.03;5092273;28;20035;-83
2023/05/05 04:58:50;;;;;;;3.78;2.70;;;;;;;12.48;77.98;101462.19;5092140;28;20020;-82
2023/05/05 05:01:15;;;;;;;4.33;3.20;;;;;;;12.45;80.21;101454.41;5091746;28;20383;-82
2023/05/05 05:03:41;;;;;;;3.40;2.63;;;;;;;12.48;78.24;101452.66;5093759;28;20491;-82
2023/05/05 05:06:06;;;;;;;3.80;2.80;;;;;;;12.47;77.44;101458.72;5096495;28;20024;-82
2023/05/05 05:08:31;;;;;;;2.50;2.30;;;;;;;12.49;77.24;101454.38;5095438;28;20055;-82
2023/05/05 05:10:58;;;;;;;2.90;2.37;;;;;;;12.49;78.28;101456.09;5095996;28;20460;-83
2023/05/05 05:13:23;;;;;;;2.78;2.35;;;;;;;12.51;77.40;101449.13;5095855;28;20030;-82
2023/05/05 05:15:49;;;;;;;2.80;2.20;;;;;;;12.53;77.44;101452.59;5095451;28;20115;-82
2023/05/05 05:18:14;;;;;;;2.47;2.10;;;;;;;12.50;78.58;101442.19;5096220;28;20032;-83
2023/05/05 05:20:39;;;;;;;2.23;2.03;;;;;;;12.58;76.93;101448.16;5095942;28;20023;-83
2023/05/05 05:23:04;;;;;;;2.37;2.13;;;;;;;12.63;77.10;101448.09;5095575;28;20073;-83
2023/05/05 05:25:30;;;;;;;3.33;2.20;;;;;;;12.65;76.47;101451.53;5095385;28;20060;-83
2023/05/05 05:27:55;;;;;;;3.00;2.40;;;;;;;12.65;75.97;101452.41;5095439;28;20044;-82
2023/05/05 05:30:20;;;;;;;3.17;2.40;;;;;;;12.72;77.11;101457.53;5094920;28;20099;-83
2023/05/05 05:32:46;;;;;;;4.90;3.00;;;;;;;12.74;80.00;101450.56;5095705;28;20357;-83
2023/05/05 05:35:11;;;;;;;3.50;2.73;;;;;;;12.75;77.30;101458.31;5095406;28;20020;-83
2023/05/05 05:37:36;;;;;;;3.60;2.43;;;;;;;12.76;78.26;101457.44;5095364;28;20535;-83
2023/05/05 05:40:03;;;;;;;3.07;2.40;;;;;;;12.76;80.59;101452.25;5095519;28;20027;-83
2023/05/05 05:42:29;;;;;;;2.95;2.20;;;;;;;12.84;79.39;101467.75;5094781;28;20111;-83
2023/05/05 05:44:55;;;;;;;2.43;2.07;;;;;;;12.87;77.85;101462.50;5095803;28;20028;-83
2023/05/05 05:47:23;;;;;;;3.47;2.70;;;;;;;12.91;80.77;101465.94;5095219;28;20046;-83
2023/05/05 05:49:50;;;;;;;2.80;2.40;;;;;;;12.94;78.48;101478.91;5094078;28;20035;-84
2023/05/05 05:52:18;;;;;;;3.22;2.50;;;;;;;12.97;77.49;101484.06;5095876;28;20077;-81
2023/05/05 05:54:43;;;;;;;2.80;2.30;;;;;;;13.00;78.21;101491.84;5094392;28;20020;-82
2023/05/05 05:57:08;;;;;;;2.33;2.10;;;;;;;13.09;78.36;101509.94;5094857;28;20111;-83
2023/05/05 05:59:34;;;;;;;2.27;2.07;;;;;;;13.11;80.06;101513.38;5095161;28;20418;-83
2023/05/05 06:02:00;;;;;;;3.83;2.37;;;;;;;13.23;80.39;101519.28;5095129;28;20073;-82
2023/05/05 06:04:25;;;;;;;2.95;2.25;;;;;;;13.33;81.40;101528.69;5094298;28;20020;-83
2023/05/05 06:06:51;;;;;;;3.87;2.90;;;;;;;13.40;81.29;101530.34;5095523;28;20365;-83
2023/05/05 06:09:16;;;;;;;4.47;2.90;;;;;;;13.48;82.45;101534.59;5095331;28;20511;-83
2023/05/05 06:11:41;;;;;;;3.83;2.83;;;;;;;13.52;82.05;101531.91;5094191;28;20426;-83
2023/05/05 06:14:06;;;;;;;3.47;2.53;;;;;;;13.62;80.04;101534.34;5094835;28;20027;-83
2023/05/05 06:16:32;;;;;;;3.67;2.57;;;;;;;13.73;81.99;101541.13;5094702;28;20039;-83
2023/05/05 06:18:57;;;;;;;5.07;3.40;;;;;;;13.82;82.82;101539.22;5094458;28;20494;-83
2023/05/05 06:21:22;;;;;;;8.37;4.93;;;;;;;13.83;79.67;101527.91;5094774;28;20020;-84
2023/05/05 06:23:47;;;;;;;8.83;4.43;;;;;;;14.00;84.11;101551.94;5094728;28;20024;-83
2023/05/05 06:26:13;;;;;;;7.40;4.17;;;;;;;14.02;83.22;101536.22;5093785;28;20054;-83
2023/05/05 06:28:38;;;;;;;6.13;3.50;;;;;;;14.16;83.29;101547.28;5094602;28;20071;-83
2023/05/05 06:31:04;;;;;;;8.33;4.40;;;;;;;14.30;84.63;101543.56;5093496;28;20028;-82
2023/05/05 06:33:29;;;;;;;8.40;4.67;;;;;;;14.40;85.29;101542.47;5093287;28;20031;-83
2023/05/05 06:35:54;;;;;;;9.73;4.87;;;;;;;14.49;82.99;101533.59;5094575;28;20027;-82
2023/05/05 06:38:20;;;;;;;7.87;4.33;;;;;;;14.74;84.73;101538.34;5093588;28;20032;-83
2023/05/05 06:40:48;;;;;;;8.43;4.53;;;;;;;15.54;84.03;101539.06;5093909;28;20028;-83
2023/05/05 06:43:14;;;;;;;8.32;4.53;;;;;;;17.13;82.48;101536.41;5094181;28;20016;-82
2023/05/05 06:45:40;;;;;;;7.35;4.10;;;;;;;19.20;74.75;101523.81;5093396;28;20035;-78
2023/05/05 06:48:05;;;;;;;4.73;3.27;;;;;;;20.75;73.42;101528.53;5094458;28;20372;-82
2023/05/05 06:50:30;;;;;;;7.53;3.90;;;;;;;21.98;66.74;101538.34;5093997;28;20464;-82
2023/05/05 06:52:58;;;;;;;6.80;3.90;;;;;;;22.77;62.99;101545.56;5093199;28;20145;-82
2023/05/05 06:55:24;;;;;;;5.20;3.25;;;;;;;23.65;60.65;101534.41;5093866;28;20016;-83
2023/05/05 06:57:49;;;;;;;7.10;3.70;;;;;;;24.42;58.14;101544.78;5083508;28;20031;-82
2023/05/05 07:00:16;;;;;;;4.40;2.97;;;;;;;24.94;55.85;101540.59;5092239;28;20040;-82
2023/05/05 07:02:41;;;;;;;7.50;4.00;;;;;;;25.01;50.08;101541.03;5093890;28;20023;-83
2023/05/05 07:05:07;;;;;;;7.03;3.33;;;;;;;24.82;52.63;101550.22;5094132;28;20074;-82
2023/05/05 07:07:32;;;;;;;4.47;2.97;;;;;;;24.36;52.92;101548.66;5092798;28;20039;-82
2023/05/05 07:09:57;;;;;;;5.50;2.80;;;;;;;23.87;53.75;101552.50;5093771;28;20069;-83
2023/05/05 07:12:23;;;;;;;3.40;2.70;;;;;;;23.26;54.31;101549.03;5093285;28;20020;-84
2023/05/05 07:14:57;;;;;;;3.50;2.57;;;;;;;22.59;54.87;101543.94;5092992;28;20024;-82
2023/05/05 07:17:23;;;;;;;4.60;2.80;;;;;;;22.06;56.71;101554.66;5092533;28;20473;-83
2023/05/05 07:19:50;;;;;;;3.47;2.73;;;;;;;21.52;57.83;101560.00;5093425;28;20039;-82
2023/05/05 07:22:15;;;;;;;5.25;3.00;;;;;;;21.09;58.69;101557.72;5092604;28;20434;-82
2023/05/05 07:24:40;;;;;;;5.67;3.17;;;;;;;20.68;57.49;101558.72;5093297;28;20016;-84
2023/05/05 07:27:06;;;;;;;5.63;3.57;;;;;;;20.28;60.25;101557.91;5093137;28;20040;-81
2023/05/05 07:29:31;;;;;;;5.40;3.07;;;;;;;20.02;60.94;101566.03;5092155;28;20025;-85
2023/05/05 07:31:56;;;;;;;5.63;3.37;;;;;;;19.80;61.36;101563.47;5093174;28;20090;-83
2023/05/05 07:34:22;;;;;;;4.63;2.93;;;;;;;19.57;62.50;101556.53;5093230;28;20027;-83
2023/05/05 07:36:47;;;;;;;5.00;2.80;;;;;;;19.39;62.75;101555.50;5092940;28;20371;-83
2023/05/05 07:39:14;;;;;;;3.80;2.87;;;;;;;19.28;63.20;101561.22;5092832;28;20020;-83
2023/05/05 07:41:39;;;;;;;;;;;;;;;19.11;64.04;101560.13;5092751;28;20217;-82
2023/05/05 07:44:04;;;;;;;2.72;2.40;;;;;;;18.98;64.43;101554.50;5093014;28;19923;-81
2023/05/05 07:46:30;;;;;;;3.00;2.37;;;;;;;18.90;64.35;101550.41;5092955;28;20103;-82
2023/05/05 07:48:55;;;;;;;2.47;2.20;;;;;;;18.81;65.16;101543.72;5092447;28;20134;-81
2023/05/05 07:51:20;;;;;;;3.43;2.27;;;;;;;18.80;65.05;101547.31;5092601;28;20388;-81
2023/05/05 07:53:46;;;;;;;2.53;1.97;;;;;;;18.84;64.84;101538.34;5093288;28;20032;-82
2023/05/05 07:56:11;;;;;;;1.93;1.70;;;;;;;18.97;65.56;101544.88;5092607;28;20028;-81
2023/05/05 07:58:36;;;;;;;2.33;1.80;;;;;;;19.07;64.99;101550.66;5148078;22;20055;-82
2023/05/05 08:01:04;;;;;;;2.20;2.00;;;;;;;19.09;64.70;101547.94;5093171;28;20043;-82
2023/05/05 08:03:29;;;;;;;1.70;1.60;;;;;;;19.11;65.08;101539.06;5092076;28;20117;-83
2023/05/05 08:05:55;;;;;;;3.00;2.27;;;;;;;19.18;64.50;101531.78;5092827;28;20035;-84
2023/05/05 08:08:23;;;;;;;3.13;2.10;;;;;;;19.34;64.00;101528.53;5092812;28;20116;-82
2023/05/05 08:10:49;;;;;;;2.20;1.70;;;;;;;19.48;64.69;101535.84;5091969;28;20140;-84
2023/05/05 08:13:15;;;;;;;2.03;1.85;;;;;;;19.70;64.44;101549.81;5093243;28;20070;-89
2023/05/05 08:15:40;;;;;;;2.93;2.33;;;;;;;19.75;62.59;101541.72;5090679;28;20021;-80
2023/05/05 08:18:05;;;;;;;2.30;2.10;;;;;;;19.83;63.77;101549.31;5091685;28;20024;-85
2023/05/05 08:20:30;;;;;;;2.20;2.00;;;;;;;19.89;63.96;101544.66;5088240;28;20558;-82
2023/05/05 08:22:56;;;;;;;2.47;2.10;;;;;;;19.94;64.19;101556.75;5092891;28;20016;-86
2023/05/05 08:25:21;;;;;;;2.10;1.90;;;;;;;20.00;64.04;101548.59;5091657;28;20111;-85
2023/05/05 08:27:46;;;;;;;2.30;2.10;;;;;;;20.05;63.26;101549.22;5092683;28;20099;-85
2023/05/05 08:30:12;;;;;;;2.20;2.00;;;;;;;20.16;63.17;101548.78;5092642;28;20056;-85
2023/05/05 08:32:37;;;;;;;1.83;1.73;;;;;;;20.25;62.56;101556.25;5091756;28;20016;-85
2023/05/05 08:35:04;;;;;;;4.20;2.30;;;;;;;20.25;61.39;101552.78;5092735;28;20043;-87
2023/05/05 08:37:30;;;;;;;2.17;1.98;;;;;;;20.30;62.98;101558.69;5091879;28;20019;-85
2023/05/05 08:39:56;;;;;;;2.20;1.90;;;;;;;20.37;62.33;101552.25;5096070;28;20028;-84
2023/05/05 08:42:21;;;;;;;;;;;;;;;20.45;62.38;101563.28;5097179;28;20073;-86
2023/05/05 08:44:46;;;;;;;;;;;;;;;20.42;60.11;101568.69;5097154;28;19916;-83
2023/05/05 08:47:14;;;;;;;4.07;2.10;;;;;;;20.33;61.49;101558.56;5096221;28;19920;-83
2023/05/05 08:49:45;;;;;;;2.53;2.20;;;;;;;20.23;61.61;101562.53;5096500;28;20475;-83
2023/05/05 08:52:16;;;;;;;2.70;2.00;;;;;;;20.12;60.89;101555.09;5096048;28;20527;-83
2023/05/05 08:54:49;;;;;;;1.85;1.75;;;;;;;20.01;61.64;101559.06;5096437;28;20032;-86
2023/05/05 08:57:21;;;;;;;1.42;1.33;;;;;;;19.98;62.03;101555.72;5096498;28;20040;-85
2023/05/05 08:59:48;;;;;;;1.77;1.20;;;;;;;19.94;61.45;101565.53;5095794;28;20054;-85
2023/05/05 09:02:14;;;;;;;1.40;1.30;;;;;;;19.85;60.69;101558.00;5096337;28;20019;-85
2023/05/05 09:04:41;;;;;;;1.40;1.10;;;;;;;19.82;61.72;101564.22;5096048;28;20039;-85
2023/05/05 09:07:07;;;;;;;1.55;1.42;;;;;;;19.85;61.19;101552.72;5095484;28;20491;-85
2023/05/05 09:09:33;;;;;;;;;;;;;;;19.85;61.56;101553.56;5096376;28;20031;-85
2023/05/05 09:11:58;;;;;;;;;;;;;;;19.90;62.04;101556.91;5095734;28;19916;-85
2023/05/05 09:14:26;;;;;;;2.27;1.37;;;;;;;19.89;60.43;101559.59;5095199;28;19991;-85
2023/05/05 09:16:52;;;;;;;1.48;1.38;;;;;;;19.92;61.08;101551.56;5095995;28;20039;-85
2023/05/05 09:19:20;;;;;;;1.90;1.20;;;;;;;20.05;61.58;101571.19;5095972;28;20031;-85
2023/05/05 09:21:47;;;;;;;0.70;0.70;;;;;;;20.15;60.79;101568.97;5094953;28;20050;-85
2023/05/05 09:24:14;;;;;;;0.70;0.70;;;;;;;20.16;60.34;101562.78;5096151;28;20024;-87
2023/05/05 09:26:46;;;;;;;0.93;0.93;;;;;;;20.22;60.64;101566.94;5096048;28;20024;-87
2023/05/05 09:29:21;;;;;;;0.88;0.85;;;;;;;20.25;60.44;101569.44;5095725;28;20031;-86
2023/05/05 09:32:04;;;;;;;1.10;0.73;;;;;;;20.25;60.35;101572.06;5095679;28;20028;-84
2023/05/05 09:34:32;;;;;;;1.20;1.10;;;;;;;20.19;60.16;101564.47;5094681;28;20061;-80
2023/05/05 09:36:57;;;;;;;2.08;1.15;;;;;;;20.14;59.93;101566.44;5095995;28;20020;-83
2023/05/05 09:39:22;;;;;;;0.87;0.87;;;;;;;20.12;61.11;101570.91;5095929;28;20532;-82
2023/05/05 09:41:48;;;;;;;1.00;1.00;;;;;;;20.10;61.22;101576.25;5086714;28;20031;-82
2023/05/05 09:44:15;;;;;;;0.80;0.80;;;;;;;19.99;61.07;101560.91;5095658;28;20475;-88
2023/05/05 09:46:51;;;;;;;0.98;0.98;;;;;;;20.01;61.59;101566.13;5095413;28;20138;-84
2023/05/05 09:49:25;;;;;;;1.40;1.27;;;;;;;19.96;61.63;101558.41;5093778;28;20051;-83
2023/05/05 09:51:51;;;;;;;1.63;1.20;;;;;;;19.97;62.01;101559.25;5095632;28;20032;-83
2023/05/05 09:54:31;;;;;;;1.05;1.05;;;;;;;19.96;62.24;101558.41;5094928;28;20402;-82
2023/05/05 09:56:57;;;;;;;0.98;0.90;;;;;;;19.89;62.19;101559.59;5074284;28;20044;-83
2023/05/05 09:59:25;;;;;;;1.30;1.20;;;;;;;19.86;62.28;101559.75;5074774;28;20033;-86
2023/05/05 10:01:50;;;;;;;0.85;0.85;;;;;;;19.85;62.46;101558.00;5074718;28;20115;-84
2023/05/05 10:04:34;;;;;;;1.10;1.00;;;;;;;19.75;62.23;101539.09;5074299;28;20119;-85
2023/05/05 10:07:22;;;;;;;0.85;0.85;;;;;;;19.83;63.51;101554.56;5074745;28;20039;-83
2023/05/05 10:10:09;;;;;;;1.00;0.80;;;;;;;19.80;63.30;101550.28;5074247;28;20024;-85
2023/05/05 10:12:41;;;;;;;0.80;0.80;;;;;;;19.81;63.11;101546.75;5075349;28;20040;-87
2023/05/05 10:15:16;;;;;;;1.25;1.15;;;;;;;19.92;63.66;101562.09;5074098;28;20068;-87
2023/05/05 10:17:50;;;;;;;2.42;1.58;;;;;;;19.81;61.89;101556.41;5073609;28;20025;-86
2023/05/05 10:20:17;;;;;;;2.30;1.80;;;;;;;19.67;63.04;101555.22;5076219;28;20067;-87
2023/05/05 10:23:01;;;;;;;1.50;1.40;;;;;;;19.50;62.76;101541.91;5094786;28;20534;-87
2023/05/05 10:25:45;;;;;;;1.55;1.40;;;;;;;19.37;63.40;101539.78;5088843;28;20039;-87
2023/05/05 10:28:44;;;;;;;2.70;1.20;;;;;;;19.29;63.46;101545.34;5083237;28;20070;-86
2023/05/05 10:31:46;;;;;;;1.15;1.05;;;;;;;19.12;64.53;101542.56;5093554;28;20058;-87
2023/05/05 10:34:25;;;;;;;1.75;1.20;;;;;;;19.05;64.03;101568.25;5083793;28;20036;-87
2023/05/05 10:36:52;;;;;;;1.00;1.00;;;;;;;18.86;64.94;101552.31;5094728;28;20046;-87
2023/05/05 10:39:21;;;;;;;;;;;;;;;18.82;65.02;101566.47;5094219;28;20073;-87
2023/05/05 10:42:05;;;;;;;1.02;1.02;;;;;;;18.66;65.83;101568.84;5094815;28;19923;-88
2023/05/05 10:44:52;;;;;;;1.70;1.08;;;;;;;18.59;66.69;101577.88;5093149;28;20020;-87
2023/05/05 10:47:27;;;;;;;1.25;1.00;;;;;;;18.45;66.96;101578.41;5093314;28;20016;-87
2023/05/05 10:50:28;;;;;;;1.20;1.20;;;;;;;18.42;69.76;101581.13;5094724;28;20071;-87
2023/05/05 10:53:39;;;;;;;2.10;1.30;;;;;;;18.28;70.84;101585.13;5093936;28;20028;-86
2023/05/05 10:56:50;;;;;;;1.25;1.13;;;;;;;18.12;70.62;101576.09;5094751;28;20032;-87
2023/05/05 10:59:52;;;;;;;1.30;1.20;;;;;;;18.06;69.98;101588.50;5093300;28;20047;-86
2023/05/05 11:03:08;;;;;;;1.90;1.23;;;;;;;17.99;71.74;101580.88;5083270;28;20042;-87
2023/05/05 11:06:22;;;;;;;1.38;1.20;;;;;;;17.90;73.66;101588.16;5073224;28;20040;-86
2023/05/05 11:08:48;;;;;;;1.45;1.20;;;;;;;17.76;74.32;101574.63;5074001;28;20052;-87
2023/05/05 11:12:00;;;;;;;2.43;1.40;;;;;;;17.72;73.08;101591.41;5074308;28;20025;-89
2023/05/05 11:14:25;;;;;;;2.47;1.50;;;;;;;17.65;74.30;101593.38;5081184;28;20471;-89
2023/05/05 11:16:53;;;;;;;1.30;1.20;;;;;;;17.48;75.69;101583.44;5094330;28;20034;-88
2023/05/05 11:19:47;;;;;;;1.30;1.20;;;;;;;17.47;72.89;101607.06;5093934;28;20028;-86
2023/05/05 11:22:12;;;;;;;1.50;1.40;;;;;;;17.33;74.37;101591.78;5094093;28;20468;-86
2023/05/05 11:24:41;;;;;;;1.70;1.60;;;;;;;17.27;75.29;101593.72;5093186;28;20029;-87
2023/05/05 11:27:07;;;;;;;2.42;1.90;;;;;;;17.18;78.78;101586.09;5093058;28;20031;-87
2023/05/05 11:30:03;;;;;;;2.50;1.90;;;;;;;17.04;78.82;101602.28;5093555;28;20059;-88
2023/05/05 11:32:29;;;;;;;2.85;2.00;;;;;;;16.74;78.06;101601.38;5094042;28;20031;-87
2023/05/05 11:34:54;;;;;;;1.50;1.40;;;;;;;16.50;79.49;101607.28;5093494;28;20024;-86
2023/05/05 11:37:23;;;;;;;1.40;1.30;;;;;;;16.25;78.18;101601.00;5093610;28;20035;-87
2023/05/05 11:40:06;;;;;;;1.75;0.98;;;;;;;16.13;76.79;101608.28;5093531;28;20032;-87